الصفحة الرئيسية
METAR-TAF:

METAR-TAF

مطار :

مطار غران كناريا

كناريا الكبرى, إسبانيا

دائرة عرض: 27-56N, خط طول: 015-23W, ارتفاع: 23 متر

مراقبة الطقس الحالي

تاريخ ووقت الإصدار 31 دقيقة قبل الساعة 01:00UTC
ريح 22 عقدة من الشمال
درجة الحرارة 23°درجة مئوية
الرطوبة 73%
ضغط 1013 hPa
الرؤية 10 كم أو أكثر
غيوم قليلة على ارتفاع 2400 قدم

METAR: GCLP 050100Z 01022KT 9999 FEW024 23/18 Q1013 NOSIG

زمن: 02:31 (01:31 UTC)

توقعات

تاريخ ووقت الإصدار 5ساعات و 31 دقيقة قبل الساعة 20:00UTC
التوقعات صالحة من04 الساعة 21 UTC إلى 05 الساعة 21 UTC
ريح 24 عقدة من الشمال
الرؤية 10 كم أو أكثر
غيوم قليلة على ارتفاع 2500 قدم
نظرية الاحتمالات 30% :
مؤقت
من 04 الساعة 21 UTC إلى 05 الساعة 09 UTC
ريح 22 عقدة من الشمال تتزايد حتى 32 عقدة

TAF: GCLP 042000Z 0421/0521 36024KT 9999 FEW025 TX28/0514Z TN22/0506Z PROB30 TEMPO 0421/0509 36022G32KT

أرصاد الطقس والتوقعات من أكثر من 4000 مطار (تقارير الطقس للمطار METAR والتنبؤ بالطقس بالمطارTAF).

المحطات المتاحة هي النقط الصفراء والحمراء على الخريطة.

حرك المؤشر فوق النقطة لمعرفة اسم المحطة.

ثم انقر لمعرفة أرصاد وتوقعات الطقس.

لتغيير الخارطة: اضغط على الأزرار الخضراء مع رمز الصليب الأسود للتكبير. على الزر الأخضر مع شرطة للتصغير، أو على الأسهم الخضراء للخرائط المجاورة.


METAR-TAF: